Terminal Aerodrome Forecast
Issued by NWS

Home | Current Version | Previous Version | Text Only | Print | Product List | Glossary On
Versions: 1 2 3 4 5 6 7 8 9 10 11 12 13 14 15
000
FTUS45 KABQ 271737
TAFGUP
TAF
KGUP 271737Z 2718/2818 26026G36KT P6SM SCT070
     FM280200 29015KT P6SM SCT080
     FM280500 32006KT P6SM BKN090
     FM280800 04007KT P6SM BKN070
     FM281600 27012G20KT P6SM OVC070=

USA.gov is the U.S. government's official web portal to all federal, state and local government web resources and services.